Time;durP1;ratioP1;P1;durP2;ratioP2;P2;SDS_P1;SDS_P2;PMS_P1;PMS_P2;Temp;Humidity;BMP_temperature;BMP_pressure;BME280_temperature;BME280_humidity;BME280_pressure;Samples;Min_cycle;Max_cycle;Signal;HPM_P1;HPM_P2
2023/07/18 00:02:00;;;;;;;16.17;4.20;;;;;;;;;;5046100;28;20025;-71
2023/07/18 00:04:29;;;;;;;17.20;4.28;;;;;;;;;;5039767;28;20040;-71
2023/07/18 00:06:55;;;;;;;16.80;4.10;;;;;;;;;;5034855;28;20022;-71
2023/07/18 00:09:22;;;;;;;16.63;4.13;;;;;;;;;;5037586;28;20048;-70
2023/07/18 00:11:48;;;;;;;29.90;5.80;;;;;;;;;;5040322;28;20520;-71
2023/07/18 00:14:17;;;;;;;19.23;4.03;;;;;;;;;;5047025;28;20032;-71
2023/07/18 00:16:44;;;;;;;15.82;3.85;;;;;;;;;;5043347;28;20108;-68
2023/07/18 00:19:13;;;;;;;23.58;4.55;;;;;;;;;;5047831;28;20025;-69
2023/07/18 00:21:40;;;;;;;16.80;3.83;;;;;;;;;;5041160;28;20060;-72
2023/07/18 00:24:07;;;;;;;18.58;4.00;;;;;;;;;;5047424;28;20061;-70
2023/07/18 00:26:33;;;;;;;22.17;5.28;;;;;;;;;;5021327;28;20057;-70
2023/07/18 00:29:00;;;;;;;14.55;4.32;;;;;;;;;;5047988;28;20017;-70
2023/07/18 00:31:27;;;;;;;15.20;4.00;;;;;;;;;;5049742;28;20250;-70
2023/07/18 00:33:53;;;;;;;14.23;4.30;;;;;;;;;;5038747;28;20540;-70
2023/07/18 00:36:19;;;;;;;18.77;4.07;;;;;;;;;;5056869;28;20071;-70
2023/07/18 00:38:45;;;;;;;17.50;4.28;;;;;;;;;;5049320;28;20048;-71
2023/07/18 00:41:11;;;;;;;17.00;4.72;;;;;;;;;;5045110;28;20084;-71
2023/07/18 00:43:38;;;;;;;16.60;4.70;;;;;;;;;;5042855;28;20017;-70
2023/07/18 00:46:05;;;;;;;17.40;4.57;;;;;;;;;;5047198;28;20033;-71
2023/07/18 00:48:35;;;;;;;17.52;4.05;;;;;;;;;;5057906;28;20082;-71
2023/07/18 00:51:04;;;;;;;;;;;;;;;;;;5022170;28;20119;-72
2023/07/18 00:53:31;;;;;;;25.65;4.65;;;;;;;;;;5055124;28;19916;-71
2023/07/18 00:55:57;;;;;;;16.80;4.32;;;;;;;;;;5048860;28;20138;-71
2023/07/18 00:58:24;;;;;;;24.13;4.53;;;;;;;;;;5036677;28;20470;-71
2023/07/18 01:00:51;;;;;;;20.48;4.00;;;;;;;;;;5034371;28;20054;-69
2023/07/18 01:03:18;;;;;;;19.67;4.05;;;;;;;;;;5036378;28;20025;-70
2023/07/18 01:05:44;;;;;;;18.67;4.32;;;;;;;;;;5049618;28;20406;-70
2023/07/18 01:08:10;;;;;;;25.70;4.38;;;;;;;;;;5048134;28;20568;-70
2023/07/18 01:10:39;;;;;;;13.32;3.60;;;;;;;;;;5048395;28;20047;-70
2023/07/18 01:13:05;;;;;;;12.48;4.00;;;;;;;;;;5039342;28;20128;-70
2023/07/18 01:15:32;;;;;;;16.35;4.00;;;;;;;;;;5044968;28;20037;-70
2023/07/18 01:18:02;;;;;;;22.70;4.10;;;;;;;;;;5033583;28;20028;-70
2023/07/18 01:20:30;;;;;;;18.73;4.10;;;;;;;;;;5038385;28;20079;-70
2023/07/18 01:22:57;;;;;;;13.60;4.93;;;;;;;;;;5036287;28;20048;-69
2023/07/18 01:25:24;;;;;;;12.50;3.90;;;;;;;;;;5057723;28;20048;-70
2023/07/18 01:27:52;;;;;;;17.70;4.97;;;;;;;;;;5049426;28;20051;-69
2023/07/18 01:30:19;;;;;;;19.25;4.10;;;;;;;;;;5042498;28;20115;-70
2023/07/18 01:32:48;;;;;;;17.23;3.65;;;;;;;;;;5066212;28;20033;-70
2023/07/18 01:35:15;;;;;;;16.60;6.07;;;;;;;;;;5050723;28;20061;-70
2023/07/18 01:37:44;;;;;;;14.00;3.70;;;;;;;;;;5046547;28;20024;-70
2023/07/18 01:40:14;;;;;;;12.75;3.63;;;;;;;;;;5047849;28;20090;-71
2023/07/18 01:42:42;;;;;;;15.70;3.50;;;;;;;;;;5043148;28;20466;-73
2023/07/18 01:45:09;;;;;;;11.23;3.65;;;;;;;;;;5036392;28;20394;-70
2023/07/18 01:47:36;;;;;;;16.25;3.70;;;;;;;;;;5044037;28;20021;-70
2023/07/18 01:50:04;;;;;;;14.38;3.60;;;;;;;;;;5043075;28;20479;-70
2023/07/18 01:52:31;;;;;;;14.80;4.15;;;;;;;;;;5047557;28;20021;-70
2023/07/18 01:55:00;;;;;;;12.07;3.50;;;;;;;;;;5048471;28;20025;-70
2023/07/18 01:57:30;;;;;;;17.48;4.38;;;;;;;;;;5046128;28;20053;-71
2023/07/18 01:59:59;;;;;;;14.88;4.07;;;;;;;;;;5042330;28;20021;-71
2023/07/18 02:02:25;;;;;;;12.98;4.25;;;;;;;;;;5046402;28;20028;-70
2023/07/18 02:04:52;;;;;;;16.30;4.57;;;;;;;;;;5034755;28;20041;-70
2023/07/18 02:07:18;;;;;;;13.07;3.78;;;;;;;;;;5034356;28;20033;-70
2023/07/18 02:09:45;;;;;;;12.32;4.22;;;;;;;;;;5044488;28;20116;-71
2023/07/18 02:12:11;;;;;;;21.05;4.65;;;;;;;;;;5051406;28;20041;-71
2023/07/18 02:14:37;;;;;;;17.67;4.45;;;;;;;;;;5040951;28;20172;-71
2023/07/18 02:17:04;;;;;;;12.90;3.75;;;;;;;;;;5048324;28;20040;-71
2023/07/18 02:19:30;;;;;;;14.15;4.25;;;;;;;;;;5037045;28;20142;-70
2023/07/18 02:21:56;;;;;;;11.68;4.10;;;;;;;;;;5036739;28;20116;-71
2023/07/18 02:24:22;;;;;;;13.10;4.25;;;;;;;;;;5036049;28;20036;-71
2023/07/18 02:26:48;;;;;;;15.57;4.22;;;;;;;;;;5040100;28;20049;-71
2023/07/18 02:29:15;;;;;;;16.80;4.43;;;;;;;;;;5045516;28;20065;-71
2023/07/18 02:31:43;;;;;;;17.73;4.63;;;;;;;;;;5039192;28;20102;-70
2023/07/18 02:34:10;;;;;;;12.95;4.40;;;;;;;;;;5041601;28;20039;-71
2023/07/18 02:36:37;;;;;;;14.63;3.92;;;;;;;;;;5048428;28;20040;-71
2023/07/18 02:39:06;;;;;;;17.58;5.03;;;;;;;;;;5044253;28;20123;-71
2023/07/18 02:41:32;;;;;;;11.27;4.70;;;;;;;;;;5054128;28;20037;-71
2023/07/18 02:44:00;;;;;;;15.40;4.65;;;;;;;;;;5044008;28;20056;-71
2023/07/18 02:46:27;;;;;;;13.77;4.25;;;;;;;;;;5058448;28;20044;-71
2023/07/18 02:48:53;;;;;;;14.45;4.43;;;;;;;;;;5038187;28;20333;-71
2023/07/18 02:51:19;;;;;;;12.13;4.90;;;;;;;;;;5055943;28;20040;-69
2023/07/18 02:53:45;;;;;;;11.32;4.88;;;;;;;;;;5043473;28;20029;-70
2023/07/18 02:56:12;;;;;;;19.15;5.20;;;;;;;;;;5065813;28;20068;-70
2023/07/18 02:58:38;;;;;;;13.77;4.57;;;;;;;;;;5043730;28;20025;-70
2023/07/18 03:01:04;;;;;;;16.00;4.72;;;;;;;;;;5062258;28;20044;-70
2023/07/18 03:03:32;;;;;;;15.65;4.75;;;;;;;;;;5043730;28;20098;-70
2023/07/18 03:05:58;;;;;;;22.17;5.25;;;;;;;;;;5051173;28;20121;-70
2023/07/18 03:08:25;;;;;;;15.98;4.88;;;;;;;;;;5048740;28;20036;-71
2023/07/18 03:10:51;;;;;;;13.60;4.57;;;;;;;;;;5050229;28;20025;-71
2023/07/18 03:13:18;;;;;;;13.90;4.05;;;;;;;;;;5048877;28;20041;-71
2023/07/18 03:15:44;;;;;;;10.68;4.20;;;;;;;;;;5031208;28;20166;-71
2023/07/18 03:18:10;;;;;;;16.88;4.50;;;;;;;;;;5043277;28;20033;-71
2023/07/18 03:20:38;;;;;;;15.38;5.28;;;;;;;;;;5046682;28;20029;-71
2023/07/18 03:23:05;;;;;;;14.80;4.95;;;;;;;;;;5041807;28;20125;-71
2023/07/18 03:25:31;;;;;;;9.98;4.35;;;;;;;;;;5043950;28;20040;-70
2023/07/18 03:27:57;;;;;;;19.75;5.05;;;;;;;;;;5050909;28;20025;-71
2023/07/18 03:30:23;;;;;;;14.77;4.70;;;;;;;;;;5041580;28;20425;-72
2023/07/18 03:32:51;;;;;;;14.57;4.18;;;;;;;;;;5044959;28;20107;-71
2023/07/18 03:35:17;;;;;;;17.33;4.75;;;;;;;;;;5046227;28;20429;-70
2023/07/18 03:37:44;;;;;;;13.75;4.38;;;;;;;;;;5049971;28;20103;-71
2023/07/18 03:40:11;;;;;;;18.23;5.40;;;;;;;;;;5045317;28;20035;-70
2023/07/18 03:42:37;;;;;;;13.30;4.63;;;;;;;;;;5046190;28;20200;-70
2023/07/18 03:45:04;;;;;;;16.08;4.63;;;;;;;;;;5046859;28;20048;-71
2023/07/18 03:47:31;;;;;;;15.48;4.47;;;;;;;;;;5048039;28;20036;-70
2023/07/18 03:49:57;;;;;;;16.55;4.88;;;;;;;;;;5063208;28;20036;-71
2023/07/18 03:52:23;;;;;;;16.45;4.85;;;;;;;;;;5050438;28;20112;-71
2023/07/18 03:54:50;;;;;;;11.70;4.97;;;;;;;;;;5045491;28;20123;-71
2023/07/18 03:57:16;;;;;;;12.95;4.68;;;;;;;;;;5042293;28;20103;-70
2023/07/18 03:59:42;;;;;;;12.63;5.00;;;;;;;;;;5038880;28;20037;-70
2023/07/18 04:02:08;;;;;;;17.15;5.55;;;;;;;;;;5024965;28;20042;-70
2023/07/18 04:04:34;;;;;;;19.48;5.18;;;;;;;;;;5044346;28;20128;-71
2023/07/18 04:07:00;;;;;;;15.13;5.30;;;;;;;;;;5050683;28;20035;-70
2023/07/18 04:09:28;;;;;;;16.52;4.70;;;;;;;;;;5043936;28;20056;-71
2023/07/18 04:11:54;;;;;;;13.48;4.88;;;;;;;;;;5043229;28;20079;-71
2023/07/18 04:14:20;;;;;;;18.42;5.13;;;;;;;;;;5048401;28;20032;-71
2023/07/18 04:16:46;;;;;;;17.08;4.53;;;;;;;;;;5051245;28;20638;-70
2023/07/18 04:19:12;;;;;;;17.27;5.53;;;;;;;;;;5062800;28;20045;-70
2023/07/18 04:21:38;;;;;;;14.15;4.57;;;;;;;;;;5044454;28;20379;-70
2023/07/18 04:24:08;;;;;;;18.83;5.55;;;;;;;;;;5059171;28;20478;-71
2023/07/18 04:26:34;;;;;;;8.40;4.40;;;;;;;;;;5049147;28;20403;-70
2023/07/18 04:29:00;;;;;;;18.77;4.85;;;;;;;;;;5046594;28;20075;-70
2023/07/18 04:31:26;;;;;;;13.20;4.55;;;;;;;;;;5046922;28;20039;-70
2023/07/18 04:33:52;;;;;;;19.98;4.80;;;;;;;;;;5046727;28;20642;-69
2023/07/18 04:36:19;;;;;;;16.63;4.88;;;;;;;;;;5037305;28;20086;-71
2023/07/18 04:38:45;;;;;;;15.52;6.32;;;;;;;;;;5042344;28;20032;-71
2023/07/18 04:41:11;;;;;;;12.18;4.25;;;;;;;;;;5036050;28;20060;-70
2023/07/18 04:43:37;;;;;;;10.63;4.60;;;;;;;;;;5023840;28;20067;-71
2023/07/18 04:46:04;;;;;;;14.35;4.25;;;;;;;;;;5043213;28;20075;-69
2023/07/18 04:48:30;;;;;;;16.38;4.65;;;;;;;;;;5039144;28;20120;-70
2023/07/18 04:50:58;;;;;;;10.38;4.00;;;;;;;;;;5041895;28;20083;-69
2023/07/18 04:53:26;;;;;;;14.27;4.38;;;;;;;;;;5035396;28;20033;-71
2023/07/18 04:55:52;;;;;;;16.73;4.35;;;;;;;;;;5043453;28;20044;-69
2023/07/18 04:58:19;;;;;;;10.25;4.10;;;;;;;;;;5047678;28;20108;-70
2023/07/18 05:00:45;;;;;;;13.95;3.63;;;;;;;;;;5042255;28;20551;-69
2023/07/18 05:03:13;;;;;;;8.60;4.00;;;;;;;;;;5043005;28;20033;-71
2023/07/18 05:05:39;;;;;;;8.23;3.80;;;;;;;;;;5052868;28;20638;-71
2023/07/18 05:08:05;;;;;;;11.88;3.50;;;;;;;;;;5047365;28;20048;-71
2023/07/18 05:10:31;;;;;;;15.45;4.13;;;;;;;;;;5048229;28;20037;-70
2023/07/18 05:12:58;;;;;;;8.57;3.58;;;;;;;;;;5043863;28;20024;-70
2023/07/18 05:15:24;;;;;;;15.75;3.83;;;;;;;;;;5047577;28;20108;-71
2023/07/18 05:17:50;;;;;;;10.45;3.58;;;;;;;;;;5064467;28;20105;-71
2023/07/18 05:20:16;;;;;;;13.77;3.58;;;;;;;;;;5046844;28;20035;-70
2023/07/18 05:22:44;;;;;;;12.02;3.30;;;;;;;;;;5046105;28;20108;-72
2023/07/18 05:25:12;;;;;;;11.57;3.88;;;;;;;;;;5037768;28;20069;-71
2023/07/18 05:27:39;;;;;;;13.65;3.58;;;;;;;;;;5063036;28;20049;-71
2023/07/18 05:30:05;;;;;;;11.38;3.58;;;;;;;;;;5042115;28;20033;-71
2023/07/18 05:32:31;;;;;;;14.25;4.82;;;;;;;;;;5040673;28;20072;-71
2023/07/18 05:35:00;;;;;;;12.25;4.10;;;;;;;;;;5037654;28;20116;-72
2023/07/18 05:37:28;;;;;;;13.15;3.97;;;;;;;;;;5045304;28;20037;-71
2023/07/18 05:39:55;;;;;;;14.00;4.05;;;;;;;;;;5048259;28;20088;-70
2023/07/18 05:42:22;;;;;;;11.88;4.60;;;;;;;;;;5062798;28;20029;-70
2023/07/18 05:44:48;;;;;;;16.95;4.85;;;;;;;;;;5050133;28;20095;-70
2023/07/18 05:47:15;;;;;;;19.23;5.72;;;;;;;;;;5049752;28;20064;-70
2023/07/18 05:49:41;;;;;;;16.55;5.07;;;;;;;;;;5054615;28;20132;-70
2023/07/18 05:52:07;;;;;;;16.15;4.35;;;;;;;;;;5033153;28;20036;-71
2023/07/18 05:54:33;;;;;;;16.15;5.22;;;;;;;;;;5042434;28;20071;-71
2023/07/18 05:56:59;;;;;;;19.60;4.90;;;;;;;;;;5054987;28;20037;-71
2023/07/18 05:59:30;;;;;;;16.35;4.50;;;;;;;;;;5036415;28;20048;-71
2023/07/18 06:01:56;;;;;;;;;;;;;;;;;;5062073;28;20446;-71
2023/07/18 06:04:22;;;;;;;15.25;4.13;;;;;;;;;;5051241;28;19915;-72
2023/07/18 06:06:48;;;;;;;14.30;3.92;;;;;;;;;;5037439;28;20037;-71
2023/07/18 06:09:15;;;;;;;12.30;4.13;;;;;;;;;;5039257;28;20093;-71
2023/07/18 06:11:41;;;;;;;16.17;5.10;;;;;;;;;;5052357;28;20060;-71
2023/07/18 06:14:07;;;;;;;18.08;4.32;;;;;;;;;;5049291;28;20052;-71
2023/07/18 06:16:33;;;;;;;14.63;3.88;;;;;;;;;;5048467;28;20044;-70
2023/07/18 06:18:59;;;;;;;20.67;4.55;;;;;;;;;;5051604;28;20021;-70
2023/07/18 06:21:26;;;;;;;18.60;3.97;;;;;;;;;;5042098;28;20490;-71
2023/07/18 06:23:55;;;;;;;18.70;4.13;;;;;;;;;;5039393;28;20025;-71
2023/07/18 06:26:22;;;;;;;18.92;4.45;;;;;;;;;;5043831;28;20567;-71
2023/07/18 06:28:48;;;;;;;14.13;4.18;;;;;;;;;;5047672;28;20041;-71
2023/07/18 06:31:15;;;;;;;15.38;5.00;;;;;;;;;;5045526;28;20038;-70
2023/07/18 06:33:41;;;;;;;19.45;4.55;;;;;;;;;;5044560;28;20041;-71
2023/07/18 06:36:08;;;;;;;21.10;4.70;;;;;;;;;;5043983;28;20060;-71
2023/07/18 06:38:34;;;;;;;12.50;4.30;;;;;;;;;;5048716;28;20051;-72
2023/07/18 06:41:00;;;;;;;19.35;4.45;;;;;;;;;;5038561;28;20179;-72
2023/07/18 06:43:27;;;;;;;18.90;5.07;;;;;;;;;;5045270;28;20067;-71
2023/07/18 06:45:54;;;;;;;14.98;4.40;;;;;;;;;;5039354;28;20037;-71
2023/07/18 06:48:20;;;;;;;18.48;5.43;;;;;;;;;;5045812;28;20553;-70
2023/07/18 06:50:46;;;;;;;22.48;5.68;;;;;;;;;;5049987;28;20037;-70
2023/07/18 06:53:14;;;;;;;24.27;5.85;;;;;;;;;;5058675;28;20421;-70
2023/07/18 06:55:41;;;;;;;33.30;7.85;;;;;;;;;;5044971;28;20037;-71
2023/07/18 06:58:09;;;;;;;24.58;6.85;;;;;;;;;;5040238;28;20356;-70
2023/07/18 07:00:36;;;;;;;19.15;5.38;;;;;;;;;;5051241;28;20033;-70
2023/07/18 07:03:02;;;;;;;20.10;6.07;;;;;;;;;;5051735;28;20024;-70
2023/07/18 07:05:28;;;;;;;18.92;5.75;;;;;;;;;;5071769;28;20097;-69
2023/07/18 07:07:54;;;;;;;20.42;6.60;;;;;;;;;;5046709;28;20394;-70
2023/07/18 07:10:21;;;;;;;14.65;5.50;;;;;;;;;;5049714;28;20139;-69
2023/07/18 07:12:47;;;;;;;16.90;5.85;;;;;;;;;;5048145;28;20106;-69
2023/07/18 07:15:14;;;;;;;23.23;7.10;;;;;;;;;;5050826;28;20075;-69
2023/07/18 07:17:40;;;;;;;22.55;6.13;;;;;;;;;;5049980;28;20028;-69
2023/07/18 07:20:07;;;;;;;25.65;6.88;;;;;;;;;;5047777;28;20032;-69
2023/07/18 07:22:33;;;;;;;22.08;7.22;;;;;;;;;;5048412;28;20060;-69
2023/07/18 07:24:59;;;;;;;22.00;6.85;;;;;;;;;;5048810;28;20036;-69
2023/07/18 07:27:25;;;;;;;22.55;7.15;;;;;;;;;;5051176;28;20270;-68
2023/07/18 07:29:52;;;;;;;26.67;7.07;;;;;;;;;;5044052;28;20025;-69
2023/07/18 07:32:18;;;;;;;29.35;7.60;;;;;;;;;;5040649;28;20039;-69
2023/07/18 07:34:44;;;;;;;22.45;7.20;;;;;;;;;;5047684;28;20501;-69
2023/07/18 07:37:10;;;;;;;22.35;6.68;;;;;;;;;;5062496;28;20025;-69
2023/07/18 07:39:36;;;;;;;22.15;6.20;;;;;;;;;;5043816;28;20029;-69
2023/07/18 07:42:02;;;;;;;19.85;6.65;;;;;;;;;;5048368;28;20033;-68
2023/07/18 07:44:28;;;;;;;22.35;6.20;;;;;;;;;;5050045;28;20033;-70
2023/07/18 07:46:57;;;;;;;24.33;6.78;;;;;;;;;;5048431;28;20025;-70
2023/07/18 07:49:23;;;;;;;19.25;6.32;;;;;;;;;;5065222;28;20051;-70
2023/07/18 07:51:49;;;;;;;22.27;6.57;;;;;;;;;;5046644;28;20297;-68
2023/07/18 07:54:15;;;;;;;23.02;6.57;;;;;;;;;;5063004;28;20114;-68
2023/07/18 07:56:41;;;;;;;21.75;7.00;;;;;;;;;;5053414;28;20061;-69
2023/07/18 07:59:07;;;;;;;20.00;6.57;;;;;;;;;;5053922;28;20426;-69
2023/07/18 08:01:33;;;;;;;14.13;5.82;;;;;;;;;;5022902;28;20091;-69
2023/07/18 08:04:00;;;;;;;19.40;6.70;;;;;;;;;;5035086;28;20041;-69
2023/07/18 08:06:26;;;;;;;19.38;6.78;;;;;;;;;;5049320;28;20037;-68
2023/07/18 08:08:52;;;;;;;14.80;5.53;;;;;;;;;;5051706;28;20048;-68
2023/07/18 08:11:18;;;;;;;19.42;6.72;;;;;;;;;;5046897;28;20041;-68
2023/07/18 08:13:44;;;;;;;17.17;6.40;;;;;;;;;;5031293;28;20044;-69
2023/07/18 08:16:10;;;;;;;17.30;5.90;;;;;;;;;;5049748;28;20065;-69
2023/07/18 08:18:36;;;;;;;15.35;5.43;;;;;;;;;;5045804;28;20033;-70
2023/07/18 08:21:03;;;;;;;16.92;5.85;;;;;;;;;;5037076;28;20068;-71
2023/07/18 08:23:29;;;;;;;13.48;4.70;;;;;;;;;;5039040;28;20064;-71
2023/07/18 08:25:55;;;;;;;17.42;5.13;;;;;;;;;;5042693;28;20108;-71
2023/07/18 08:28:22;;;;;;;18.35;5.20;;;;;;;;;;5047764;28;20150;-70
2023/07/18 08:30:48;;;;;;;14.68;5.18;;;;;;;;;;5044847;28;20036;-70
2023/07/18 08:33:15;;;;;;;14.30;5.32;;;;;;;;;;5046130;28;20391;-71
2023/07/18 08:35:41;;;;;;;16.23;5.00;;;;;;;;;;5046165;28;20037;-70
2023/07/18 08:38:08;;;;;;;22.15;5.35;;;;;;;;;;5045932;28;20124;-70
2023/07/18 08:40:34;;;;;;;17.45;4.93;;;;;;;;;;5049399;28;20138;-70
2023/07/18 08:43:00;;;;;;;14.77;4.88;;;;;;;;;;5030865;28;20025;-70
2023/07/18 08:45:28;;;;;;;13.45;4.70;;;;;;;;;;5046757;28;20024;-70
2023/07/18 08:47:56;;;;;;;14.52;3.70;;;;;;;;;;5047745;28;20107;-70
2023/07/18 08:50:22;;;;;;;15.30;3.80;;;;;;;;;;5047063;28;20246;-70
2023/07/18 08:52:48;;;;;;;19.13;4.05;;;;;;;;;;5043159;28;20037;-70
2023/07/18 08:55:14;;;;;;;14.98;4.28;;;;;;;;;;5046863;28;20036;-69
2023/07/18 08:57:41;;;;;;;12.45;4.05;;;;;;;;;;5041102;28;20159;-68
2023/07/18 09:00:08;;;;;;;17.00;4.63;;;;;;;;;;5057551;28;20501;-68
2023/07/18 09:02:34;;;;;;;14.45;4.13;;;;;;;;;;5047766;28;20040;-69
2023/07/18 09:05:00;;;;;;;12.80;4.07;;;;;;;;;;5046671;28;20397;-71
2023/07/18 09:07:27;;;;;;;17.40;4.40;;;;;;;;;;5042160;28;20037;-70
2023/07/18 09:09:54;;;;;;;13.23;3.63;;;;;;;;;;5056966;28;20048;-70
2023/07/18 09:12:20;;;;;;;12.57;4.45;;;;;;;;;;5064353;28;20055;-69
2023/07/18 09:14:46;;;;;;;13.45;3.40;;;;;;;;;;5047453;28;20029;-71
2023/07/18 09:17:12;;;;;;;13.88;4.13;;;;;;;;;;5046103;28;20021;-71
2023/07/18 09:19:41;;;;;;;11.38;3.65;;;;;;;;;;5052333;28;20106;-69
2023/07/18 09:22:08;;;;;;;14.05;4.93;;;;;;;;;;5029222;28;20029;-69
2023/07/18 09:24:37;;;;;;;13.77;4.22;;;;;;;;;;5046578;28;20037;-69
2023/07/18 09:27:14;;;;;;;18.23;4.68;;;;;;;;;;5046610;28;20094;-69
2023/07/18 09:29:45;;;;;;;15.48;4.80;;;;;;;;;;5062892;28;20100;-70
2023/07/18 09:32:12;;;;;;;;;;;;;;;;;;5047963;28;20115;-69
2023/07/18 09:34:38;;;;;;;15.27;4.70;;;;;;;;;;5047949;28;19916;-70
2023/07/18 09:37:05;;;;;;;18.83;4.95;;;;;;;;;;5041193;28;20113;-68
2023/07/18 09:39:32;;;;;;;12.43;4.65;;;;;;;;;;5046150;28;20086;-69
2023/07/18 09:41:58;;;;;;;12.45;3.95;;;;;;;;;;5046550;28;20045;-69
2023/07/18 09:44:26;;;;;;;12.98;4.57;;;;;;;;;;5044517;28;20045;-69
2023/07/18 09:46:52;;;;;;;14.60;4.47;;;;;;;;;;5042165;28;20061;-70
2023/07/18 09:49:19;;;;;;;12.30;4.68;;;;;;;;;;5051692;28;20055;-70
2023/07/18 09:51:51;;;;;;;14.25;4.80;;;;;;;;;;5043026;28;20401;-68
2023/07/18 09:54:18;;;;;;;14.13;4.55;;;;;;;;;;5047156;28;20323;-70
2023/07/18 09:56:45;;;;;;;17.30;5.60;;;;;;;;;;5034291;28;20037;-70
2023/07/18 09:59:11;;;;;;;11.88;4.57;;;;;;;;;;5037379;28;20033;-70
2023/07/18 10:01:38;;;;;;;13.50;4.13;;;;;;;;;;5043688;28;20032;-69
2023/07/18 10:04:04;;;;;;;12.70;4.32;;;;;;;;;;5064924;28;20032;-70
2023/07/18 10:06:32;;;;;;;13.48;5.07;;;;;;;;;;5060559;28;21557;-69
2023/07/18 10:08:59;;;;;;;14.15;5.32;;;;;;;;;;5047243;28;20029;-69
2023/07/18 10:11:25;;;;;;;10.73;4.75;;;;;;;;;;5045550;28;20040;-70
2023/07/18 10:14:07;;;;;;;11.27;4.55;;;;;;;;;;5054553;28;20033;-69
2023/07/18 10:16:36;;;;;;;14.63;5.13;;;;;;;;;;5051358;28;20471;-70
2023/07/18 10:19:18;;;;;;;13.60;5.15;;;;;;;;;;5062889;28;20056;-71
2023/07/18 10:21:46;;;;;;;10.25;4.47;;;;;;;;;;5057208;28;20017;-70
2023/07/18 10:24:23;;;;;;;13.75;5.53;;;;;;;;;;5056848;28;20505;-69
2023/07/18 10:26:52;;;;;;;13.73;5.50;;;;;;;;;;5044227;28;20048;-69
2023/07/18 10:29:18;;;;;;;15.90;4.88;;;;;;;;;;5046939;28;20044;-69
2023/07/18 10:31:45;;;;;;;14.73;4.93;;;;;;;;;;5046415;28;20134;-69
2023/07/18 10:34:14;;;;;;;11.15;3.88;;;;;;;;;;5068145;28;20024;-70
2023/07/18 10:36:40;;;;;;;13.73;5.00;;;;;;;;;;5049555;28;20021;-69
2023/07/18 10:39:12;;;;;;;12.45;4.90;;;;;;;;;;5045803;28;20029;-69
2023/07/18 10:41:47;;;;;;;13.85;4.93;;;;;;;;;;5044160;28;20021;-71
2023/07/18 10:44:14;;;;;;;16.08;4.95;;;;;;;;;;5063399;28;20040;-70
2023/07/18 10:46:40;;;;;;;9.95;4.10;;;;;;;;;;5049583;28;20037;-72
2023/07/18 10:49:07;;;;;;;11.27;4.03;;;;;;;;;;5051091;28;20025;-70
2023/07/18 10:51:34;;;;;;;12.30;4.22;;;;;;;;;;5048072;28;20264;-69
2023/07/18 10:54:00;;;;;;;8.38;4.07;;;;;;;;;;5048191;28;20041;-70
2023/07/18 10:56:26;;;;;;;13.23;5.07;;;;;;;;;;5052658;28;20028;-69
2023/07/18 10:58:53;;;;;;;11.38;4.75;;;;;;;;;;5050549;28;20040;-70
2023/07/18 11:01:20;;;;;;;10.57;4.20;;;;;;;;;;5050522;28;20052;-70
2023/07/18 11:03:46;;;;;;;13.73;4.30;;;;;;;;;;5053791;28;20075;-71
2023/07/18 11:06:14;;;;;;;12.95;4.40;;;;;;;;;;5052407;28;20037;-70
2023/07/18 11:08:44;;;;;;;13.32;4.60;;;;;;;;;;5048636;28;20037;-70
2023/07/18 11:11:10;;;;;;;12.25;4.78;;;;;;;;;;5049546;28;20048;-70
2023/07/18 11:13:37;;;;;;;14.88;5.60;;;;;;;;;;5048304;28;20033;-69
2023/07/18 11:16:07;;;;;;;13.63;5.65;;;;;;;;;;5044319;28;20029;-70
2023/07/18 11:18:37;;;;;;;12.80;4.65;;;;;;;;;;5049129;28;20036;-69
2023/07/18 11:21:03;;;;;;;12.15;4.20;;;;;;;;;;5047874;28;20021;-70
2023/07/18 11:23:30;;;;;;;36.13;4.72;;;;;;;;;;5050468;28;20029;-69
2023/07/18 11:25:58;;;;;;;11.60;3.63;;;;;;;;;;5055102;28;20049;-69
2023/07/18 11:28:33;;;;;;;13.27;3.90;;;;;;;;;;5054061;28;20028;-69
2023/07/18 11:30:59;;;;;;;14.15;4.93;;;;;;;;;;5051231;28;20033;-69
2023/07/18 11:33:29;;;;;;;11.55;4.18;;;;;;;;;;5045775;28;20057;-68
2023/07/18 11:35:56;;;;;;;10.23;4.05;;;;;;;;;;5063666;28;20090;-69
2023/07/18 11:38:24;;;;;;;11.80;4.90;;;;;;;;;;5051321;28;20032;-68
2023/07/18 11:40:51;;;;;;;12.82;4.22;;;;;;;;;;5051713;28;20035;-69
2023/07/18 11:43:18;;;;;;;11.57;4.10;;;;;;;;;;5050098;28;20037;-69
2023/07/18 11:45:46;;;;;;;10.55;3.67;;;;;;;;;;5030959;28;20052;-69
2023/07/18 11:48:13;;;;;;;12.00;4.00;;;;;;;;;;5045329;28;20380;-69
2023/07/18 11:50:43;;;;;;;8.10;3.13;;;;;;;;;;5032252;28;20037;-69
2023/07/18 11:53:09;;;;;;;13.10;3.65;;;;;;;;;;5043086;28;20060;-69
2023/07/18 11:55:35;;;;;;;11.95;4.20;;;;;;;;;;5039927;28;20021;-69
2023/07/18 11:58:07;;;;;;;9.15;4.35;;;;;;;;;;5047184;28;20052;-68
2023/07/18 12:00:35;;;;;;;8.45;3.33;;;;;;;;;;5038047;28;20132;-71
2023/07/18 12:03:01;;;;;;;8.77;3.08;;;;;;;;;;5048858;28;20104;-70
2023/07/18 12:05:27;;;;;;;9.93;4.60;;;;;;;;;;5053808;28;20448;-70
2023/07/18 12:07:53;;;;;;;13.60;4.85;;;;;;;;;;5045756;28;20049;-70
2023/07/18 12:10:21;;;;;;;11.60;5.25;;;;;;;;;;5041169;28;20506;-70
2023/07/18 12:12:47;;;;;;;11.00;4.65;;;;;;;;;;5051159;28;20078;-70
2023/07/18 12:15:13;;;;;;;15.98;5.00;;;;;;;;;;5049929;28;20033;-70
2023/07/18 12:17:40;;;;;;;10.43;4.07;;;;;;;;;;5053418;28;20020;-70
2023/07/18 12:20:06;;;;;;;8.73;3.30;;;;;;;;;;5050153;28;20496;-67
2023/07/18 12:22:33;;;;;;;5.55;3.03;;;;;;;;;;5043337;28;20292;-70
2023/07/18 12:25:01;;;;;;;10.88;2.92;;;;;;;;;;5038355;28;20037;-69
2023/07/18 12:27:27;;;;;;;10.00;2.97;;;;;;;;;;5043804;28;20175;-69
2023/07/18 12:29:53;;;;;;;8.35;3.50;;;;;;;;;;5049272;28;20028;-69
2023/07/18 12:32:20;;;;;;;8.57;3.22;;;;;;;;;;5046261;28;20063;-69
2023/07/18 12:34:46;;;;;;;9.32;3.60;;;;;;;;;;5051167;28;20033;-69
2023/07/18 12:37:12;;;;;;;7.57;3.03;;;;;;;;;;5046632;28;20041;-69
2023/07/18 12:39:39;;;;;;;10.15;3.50;;;;;;;;;;5045651;28;20025;-70
2023/07/18 12:42:05;;;;;;;8.13;3.38;;;;;;;;;;5042116;28;20112;-69
2023/07/18 12:44:42;;;;;;;9.50;3.10;;;;;;;;;;5062630;28;20048;-69
2023/07/18 12:47:09;;;;;;;8.30;2.50;;;;;;;;;;5046651;28;20041;-69
2023/07/18 12:49:36;;;;;;;10.52;3.03;;;;;;;;;;5048929;28;20039;-70
2023/07/18 12:52:03;;;;;;;6.00;2.75;;;;;;;;;;5048302;28;20119;-70
2023/07/18 12:54:29;;;;;;;5.53;2.33;;;;;;;;;;5039076;28;20493;-71
2023/07/18 12:56:56;;;;;;;4.75;2.10;;;;;;;;;;5042127;28;20027;-69
2023/07/18 12:59:22;;;;;;;9.05;2.40;;;;;;;;;;5046216;28;20029;-69
2023/07/18 13:01:49;;;;;;;8.73;2.42;;;;;;;;;;5046383;28;20665;-69
2023/07/18 13:04:15;;;;;;;10.13;1.88;;;;;;;;;;5039531;28;20029;-69
2023/07/18 13:06:41;;;;;;;3.92;1.48;;;;;;;;;;5032894;28;20057;-71
2023/07/18 13:09:07;;;;;;;6.22;1.40;;;;;;;;;;5041132;28;20036;-68
2023/07/18 13:11:34;;;;;;;3.33;1.40;;;;;;;;;;5046867;28;20041;-70
2023/07/18 13:14:00;;;;;;;8.57;3.35;;;;;;;;;;5041937;28;20386;-69
2023/07/18 13:16:26;;;;;;;12.60;2.90;;;;;;;;;;5049146;28;20041;-70
2023/07/18 13:18:52;;;;;;;10.65;2.80;;;;;;;;;;5034994;28;20033;-69
2023/07/18 13:21:18;;;;;;;8.32;3.10;;;;;;;;;;5038652;28;20049;-69
2023/07/18 13:23:44;;;;;;;7.63;2.60;;;;;;;;;;5046181;28;20055;-70
2023/07/18 13:26:12;;;;;;;11.10;2.60;;;;;;;;;;5044092;28;20045;-70
2023/07/18 13:28:38;;;;;;;10.93;2.63;;;;;;;;;;5038937;28;20093;-70
2023/07/18 13:31:05;;;;;;;7.22;2.72;;;;;;;;;;5039077;28;20040;-69
2023/07/18 13:33:31;;;;;;;6.63;1.70;;;;;;;;;;5042048;28;20481;-70
2023/07/18 13:35:58;;;;;;;6.28;2.13;;;;;;;;;;5039559;28;20085;-68
2023/07/18 13:38:24;;;;;;;7.15;2.72;;;;;;;;;;5039949;28;20454;-69
2023/07/18 13:40:50;;;;;;;14.10;3.30;;;;;;;;;;5041487;28;20040;-69
2023/07/18 13:43:17;;;;;;;10.63;2.42;;;;;;;;;;5039959;28;20478;-69
2023/07/18 13:45:44;;;;;;;5.97;2.30;;;;;;;;;;5056004;28;20025;-69
2023/07/18 13:48:10;;;;;;;7.45;2.50;;;;;;;;;;5036637;28;20026;-70
2023/07/18 13:50:36;;;;;;;7.53;2.50;;;;;;;;;;5037778;28;20127;-69
2023/07/18 13:53:02;;;;;;;8.02;2.75;;;;;;;;;;5035584;28;20044;-69
2023/07/18 13:55:51;;;;;;;6.63;2.50;;;;;;;;;;5039508;28;20073;-69
2023/07/18 13:58:17;;;;;;;12.25;2.70;;;;;;;;;;5033939;28;20021;-70
2023/07/18 14:00:43;;;;;;;7.15;2.50;;;;;;;;;;5037736;28;20088;-70
2023/07/18 14:03:10;;;;;;;6.85;2.50;;;;;;;;;;5040943;28;20029;-70
2023/07/18 14:05:36;;;;;;;9.52;3.17;;;;;;;;;;5032056;28;20045;-70
2023/07/18 14:08:03;;;;;;;6.68;2.63;;;;;;;;;;5039922;28;20087;-71
2023/07/18 14:10:29;;;;;;;9.98;2.67;;;;;;;;;;5033267;28;20490;-70
2023/07/18 14:12:55;;;;;;;8.35;2.67;;;;;;;;;;5050401;28;20401;-70
2023/07/18 14:15:21;;;;;;;6.95;2.33;;;;;;;;;;5037234;28;20486;-70
2023/07/18 14:17:48;;;;;;;16.83;2.90;;;;;;;;;;5037972;28;20041;-70
2023/07/18 14:20:14;;;;;;;11.30;2.63;;;;;;;;;;5038558;28;20105;-70
2023/07/18 14:22:41;;;;;;;12.32;2.40;;;;;;;;;;5039728;28;20040;-69
2023/07/18 14:25:07;;;;;;;8.10;3.00;;;;;;;;;;5040291;28;20033;-69
2023/07/18 14:27:33;;;;;;;13.30;4.95;;;;;;;;;;5038227;28;20056;-69
2023/07/18 14:29:59;;;;;;;7.13;2.83;;;;;;;;;;5044033;28;20033;-69
2023/07/18 14:32:26;;;;;;;18.85;3.13;;;;;;;;;;5041297;28;20044;-68